Lisbon, Iowa
Current Conditions -  °F | °C
As of 1:52 AM on Tuesday 21 Oct 2014 (Local Time) from KCID Reporting Station
Clear Clear  
Wind Chill: 43°   Ceiling: Unl
Heat Index: 46°   Visibility: 10mi
Dew Point: 41°   Wind: 6mph
Humidity: 83%   Direction: 60°ENE
Pressure: 30.06"   Gusts: NA
Location:  41.92°N, 91.39°W
Report Text: KCID 210652Z AUTO 06005KT 10SM CLR 08/05 A3006 RMK AO2 SLP178 T00780050
Loading
Personal Weather Stations






























Interactive Weather Map
Tropical Storm Tracking
New forecast layout! Learn more

10-Day Weather Forecast

Advertisements
Track Severe Weather on mobile